Time;durP1;ratioP1;P1;durP2;ratioP2;P2;SDS_P1;SDS_P2;PMS_P1;PMS_P2;Temp;Humidity;BMP_temperature;BMP_pressure;BME280_temperature;BME280_humidity;BME280_pressure;Samples;Min_cycle;Max_cycle;Signal;HPM_P1;HPM_P2
2024/03/02 00:00:22;;;;;;;2.17;0.80;;;7.50;99.90;;;;;;5071654;28;20192;-85
2024/03/02 00:02:49;;;;;;;1.50;1.00;;;7.70;99.90;;;;;;5071247;28;20186;-87
2024/03/02 00:05:21;;;;;;;2.60;1.00;;;7.70;99.90;;;;;;5070455;28;20238;-86
2024/03/02 00:07:58;;;;;;;0.77;0.77;;;7.70;99.90;;;;;;5073388;28;20192;-85
2024/03/02 00:10:57;;;;;;;2.10;0.70;;;7.70;99.90;;;;;;5078220;28;20182;-88
2024/03/02 00:13:23;;;;;;;1.27;0.73;;;7.70;99.90;;;;;;5063039;28;20188;-85
2024/03/02 00:15:55;;;;;;;1.07;0.80;;;7.60;99.90;;;;;;5078730;28;20176;-87
2024/03/02 00:18:32;;;;;;;1.60;0.90;;;7.60;99.90;;;;;;5078716;28;20707;-85
2024/03/02 00:20:58;;;;;;;0.80;0.70;;;7.60;99.90;;;;;;5077252;28;20182;-86
2024/03/02 00:23:26;;;;;;;2.30;0.87;;;7.60;99.90;;;;;;5076743;28;20164;-85
2024/03/02 00:25:54;;;;;;;2.13;0.90;;;7.60;99.90;;;;;;5077778;28;20195;-86
2024/03/02 00:28:29;;;;;;;1.63;0.70;;;7.70;99.90;;;;;;5078338;28;20702;-86
2024/03/02 00:30:56;;;;;;;1.83;0.83;;;7.60;99.90;;;;;;5077707;28;20171;-85
2024/03/02 00:33:23;;;;;;;1.07;0.70;;;7.70;99.90;;;;;;5077120;28;20180;-88
2024/03/02 00:35:50;;;;;;;1.27;0.70;;;7.70;99.90;;;;;;5078676;28;20199;-85
2024/03/02 00:38:16;;;;;;;1.83;0.77;;;7.60;99.90;;;;;;5078174;28;20172;-87
2024/03/02 00:40:42;;;;;;;2.27;0.50;;;7.60;99.90;;;;;;5078603;28;20168;-85
2024/03/02 00:43:21;;;;;;;1.10;0.70;;;7.70;99.90;;;;;;5078306;28;20534;-86
2024/03/02 00:45:47;;;;;;;4.53;2.57;;;7.80;99.90;;;;;;5077246;28;20200;-87
2024/03/02 00:48:16;;;;;;;6.93;4.63;;;7.70;99.90;;;;;;5077778;28;20257;-87
2024/03/02 00:50:42;;;;;;;0.57;0.57;;;7.90;99.90;;;;;;5078183;28;20176;-86
2024/03/02 00:53:12;;;;;;;0.70;0.60;;;7.70;99.90;;;;;;5077490;28;20805;-86
2024/03/02 00:55:38;;;;;;;0.80;0.60;;;7.60;99.90;;;;;;5079427;28;20167;-85
2024/03/02 00:58:03;;;;;;;0.60;0.60;;;7.70;99.90;;;;;;5077973;28;20172;-87
2024/03/02 01:00:30;;;;;;;1.23;0.50;;;7.60;99.90;;;;;;5077536;28;20192;-86
2024/03/02 01:02:56;;;;;;;0.83;0.60;;;7.60;99.90;;;;;;5077460;28;20574;-87
2024/03/02 01:05:21;;;;;;;1.67;0.80;;;7.60;99.90;;;;;;5077304;28;20678;-85
2024/03/02 01:07:47;;;;;;;1.73;0.80;;;7.70;99.90;;;;;;5077677;28;20291;-85
2024/03/02 01:10:13;;;;;;;0.60;0.60;;;7.60;99.90;;;;;;5077362;28;20169;-84
2024/03/02 01:12:39;;;;;;;1.73;0.80;;;7.70;99.90;;;;;;5076771;28;20176;-85
2024/03/02 01:15:07;;;;;;;1.00;0.63;;;7.70;99.90;;;;;;5079289;28;20161;-87
2024/03/02 01:17:33;;;;;;;2.40;0.70;;;7.70;99.90;;;;;;5077729;28;20172;-86
2024/03/02 01:19:59;;;;;;;1.00;0.70;;;7.60;99.90;;;;;;5075686;28;20582;-86
2024/03/02 01:22:24;;;;;;;0.70;0.60;;;7.60;99.90;;;;;;5075535;28;20196;-85
2024/03/02 01:24:50;;;;;;;2.53;1.10;;;7.60;99.90;;;;;;5074479;28;20632;-84
2024/03/02 01:27:16;;;;;;;0.87;0.60;;;7.70;99.90;;;;;;5074309;28;20216;-86
2024/03/02 01:29:42;;;;;;;0.80;0.57;;;7.80;99.90;;;;;;5074544;28;20168;-85
2024/03/02 01:32:07;;;;;;;0.73;0.47;;;7.70;99.90;;;;;;5072870;28;20242;-87
2024/03/02 01:34:33;;;;;;;1.30;0.70;;;7.90;99.90;;;;;;5074171;28;20234;-86
2024/03/02 01:36:58;;;;;;;1.30;0.77;;;7.80;99.90;;;;;;5074100;28;20544;-86
2024/03/02 01:39:24;;;;;;;2.73;0.70;;;7.70;99.90;;;;;;5073962;28;20221;-87
2024/03/02 01:41:50;;;;;;;2.00;0.60;;;7.70;99.90;;;;;;5074181;28;20234;-86
2024/03/02 01:44:15;;;;;;;1.30;0.70;;;7.80;98.90;;;;;;5073940;28;20179;-85
2024/03/02 01:46:41;;;;;;;0.97;0.50;;;7.70;98.70;;;;;;5073904;28;20687;-84
2024/03/02 01:49:07;;;;;;;1.63;0.70;;;7.70;99.30;;;;;;5074054;28;20629;-84
2024/03/02 01:51:32;;;;;;;0.90;0.60;;;7.80;98.50;;;;;;5073375;28;20172;-84
2024/03/02 01:53:58;;;;;;;1.67;0.70;;;7.70;98.20;;;;;;5074135;28;20172;-88
2024/03/02 01:56:24;;;;;;;2.47;0.97;;;7.90;96.90;;;;;;5074075;28;20180;-86
2024/03/02 01:58:50;;;;;;;2.10;0.90;;;7.90;93.60;;;;;;5073724;28;20176;-86
2024/03/02 02:01:16;;;;;;;1.47;0.70;;;7.80;92.80;;;;;;5074024;28;20220;-84
2024/03/02 02:03:43;;;;;;;0.90;0.70;;;8.00;91.50;;;;;;5073594;28;20175;-87
2024/03/02 02:06:09;;;;;;;0.97;0.70;;;7.80;89.60;;;;;;5073455;28;20207;-86
2024/03/02 02:08:37;;;;;;;1.03;0.63;;;7.90;89.30;;;;;;5074570;28;20237;-86
2024/03/02 02:11:03;;;;;;;0.97;0.80;;;7.80;90.90;;;;;;5073391;28;20399;-84
2024/03/02 02:13:28;;;;;;;2.40;0.83;;;7.70;90.40;;;;;;5073976;28;20653;-88
2024/03/02 02:15:54;;;;;;;3.57;1.00;;;7.70;86.40;;;;;;5072450;28;20195;-85
2024/03/02 02:18:20;;;;;;;1.40;0.70;;;7.80;85.80;;;;;;5073693;28;20760;-85
2024/03/02 02:20:45;;;;;;;6.67;1.40;;;7.90;85.50;;;;;;5073022;28;20168;-84
2024/03/02 02:23:13;;;;;;;2.33;0.73;;;7.80;79.20;;;;;;5073820;28;20176;-85
2024/03/02 02:25:39;;;;;;;2.83;1.00;;;7.90;81.20;;;;;;5073383;28;20259;-86
2024/03/02 02:28:06;;;;;;;1.53;0.70;;;7.90;82.70;;;;;;5073700;28;20636;-87
2024/03/02 02:30:32;;;;;;;3.40;0.90;;;7.90;82.50;;;;;;5072883;28;20203;-89
2024/03/02 02:32:58;;;;;;;1.97;0.73;;;7.90;79.80;;;;;;5071879;28;20305;-85
2024/03/02 02:35:24;;;;;;;2.80;0.80;;;7.90;78.50;;;;;;5073140;28;20552;-87
2024/03/02 02:37:51;;;;;;;2.00;1.10;;;7.90;78.50;;;;;;5073044;28;20188;-85
2024/03/02 02:40:18;;;;;;;1.43;0.80;;;7.90;79.30;;;;;;5072602;28;20225;-86
2024/03/02 02:42:44;;;;;;;2.43;0.90;;;7.90;79.10;;;;;;5072553;28;20202;-86
2024/03/02 02:45:12;;;;;;;1.83;0.93;;;7.90;76.40;;;;;;5072578;28;20183;-86
2024/03/02 02:47:38;;;;;;;2.53;1.00;;;8.00;74.60;;;;;;5072077;28;20210;-84
2024/03/02 02:50:04;;;;;;;1.20;0.63;;;7.90;77.20;;;;;;5071637;28;20624;-87
2024/03/02 02:52:36;;;;;;;2.20;1.00;;;7.80;82.10;;;;;;5072632;28;20176;-87
2024/03/02 02:55:05;;;;;;;1.83;0.90;;;7.80;84.90;;;;;;5072687;28;20263;-86
2024/03/02 02:57:37;;;;;;;2.97;0.80;;;7.70;86.10;;;;;;5072157;28;20168;-86
2024/03/02 03:00:09;;;;;;;2.50;0.97;;;7.80;85.80;;;;;;5071144;28;20191;-87
2024/03/02 03:02:37;;;;;;;2.53;1.20;;;7.80;87.10;;;;;;5070791;28;20176;-84
2024/03/02 03:05:03;;;;;;;3.47;1.10;;;7.80;87.40;;;;;;5071857;28;20243;-87
2024/03/02 03:07:29;;;;;;;2.30;1.00;;;7.80;87.90;;;;;;5072066;28;20262;-84
2024/03/02 03:09:54;;;;;;;2.10;1.30;;;7.80;83.50;;;;;;5071647;28;20597;-86
2024/03/02 03:12:20;;;;;;;2.40;1.00;;;7.80;84.20;;;;;;5069912;28;20215;-86
2024/03/02 03:14:46;;;;;;;2.10;0.97;;;7.70;82.50;;;;;;5071994;28;20173;-85
2024/03/02 03:17:11;;;;;;;2.90;0.90;;;7.70;87.10;;;;;;5071911;28;20688;-86
2024/03/02 03:19:38;;;;;;;1.83;0.80;;;7.70;87.00;;;;;;5071525;28;20179;-85
2024/03/02 03:22:04;;;;;;;2.17;0.80;;;7.80;85.80;;;;;;5070944;28;20179;-86
2024/03/02 03:24:30;;;;;;;1.87;0.90;;;7.60;89.20;;;;;;5071349;28;20176;-84
2024/03/02 03:26:55;;;;;;;1.97;0.97;;;7.60;90.00;;;;;;5071796;28;20243;-85
2024/03/02 03:29:21;;;;;;;2.53;0.83;;;7.70;89.50;;;;;;5075665;28;20174;-86
2024/03/02 03:31:47;;;;;;;3.50;0.90;;;7.70;90.00;;;;;;5091926;28;20214;-87
2024/03/02 03:34:15;;;;;;;2.53;1.00;;;7.60;91.30;;;;;;5091774;28;20530;-85
2024/03/02 03:36:42;;;;;;;2.33;0.80;;;7.50;92.40;;;;;;5091212;28;20186;-87
2024/03/02 03:39:07;;;;;;;1.33;0.83;;;7.60;90.50;;;;;;5091905;28;20171;-85
2024/03/02 03:41:33;;;;;;;1.67;0.87;;;7.60;90.30;;;;;;5091813;28;20262;-85
2024/03/02 03:43:59;;;;;;;1.23;0.80;;;7.60;91.60;;;;;;5090888;28;20209;-86
2024/03/02 03:46:24;;;;;;;1.53;0.90;;;7.50;91.50;;;;;;5091238;28;20288;-86
2024/03/02 03:48:50;;;;;;;3.93;1.10;;;7.60;92.10;;;;;;5090799;28;20175;-86
2024/03/02 03:51:16;;;;;;;2.33;1.00;;;7.60;92.30;;;;;;5091365;28;20187;-86
2024/03/02 03:53:42;;;;;;;1.63;0.90;;;7.60;92.80;;;;;;5092067;28;20171;-85
2024/03/02 03:56:07;;;;;;;1.80;0.70;;;7.60;93.10;;;;;;5090924;28;20171;-85
2024/03/02 03:58:33;;;;;;;3.40;1.10;;;7.60;91.80;;;;;;5091927;28;20262;-86
2024/03/02 04:00:59;;;;;;;3.50;1.10;;;7.70;90.10;;;;;;5091022;28;20205;-85
2024/03/02 04:03:25;;;;;;;2.20;1.17;;;7.70;88.10;;;;;;5091849;28;20191;-85
2024/03/02 04:05:51;;;;;;;3.50;1.10;;;7.50;88.70;;;;;;5091476;28;20203;-84
2024/03/02 04:08:16;;;;;;;3.23;1.13;;;7.70;86.10;;;;;;5090591;28;20195;-85
2024/03/02 04:10:42;;;;;;;2.50;1.10;;;7.60;84.30;;;;;;5091726;28;20199;-86
2024/03/02 04:13:08;;;;;;;2.10;0.93;;;7.70;83.60;;;;;;5090650;28;20176;-84
2024/03/02 04:15:34;;;;;;;2.73;1.00;;;7.70;83.70;;;;;;5091765;28;20164;-85
2024/03/02 04:17:59;;;;;;;2.87;0.90;;;7.70;81.20;;;;;;5091457;28;20163;-85
2024/03/02 04:20:25;;;;;;;3.80;0.93;;;7.70;81.40;;;;;;5091550;28;20182;-87
2024/03/02 04:22:51;;;;;;;3.07;0.80;;;7.80;81.20;;;;;;5090188;28;20175;-85
2024/03/02 04:25:16;;;;;;;3.10;1.13;;;7.80;81.70;;;;;;5090908;28;20171;-86
2024/03/02 04:27:42;;;;;;;2.47;0.80;;;7.80;78.40;;;;;;5093058;28;20168;-85
2024/03/02 04:30:08;;;;;;;2.50;0.80;;;7.60;75.80;;;;;;5090991;28;20611;-85
2024/03/02 04:32:34;;;;;;;2.10;1.03;;;7.70;76.00;;;;;;5092751;28;20590;-86
2024/03/02 04:34:59;;;;;;;3.20;1.13;;;7.80;73.00;;;;;;5091893;28;20229;-84
2024/03/02 04:37:25;;;;;;;3.70;1.40;;;7.70;74.30;;;;;;5091158;28;20624;-86
2024/03/02 04:39:52;;;;;;;5.90;1.23;;;7.70;70.00;;;;;;5090897;28;20198;-84
2024/03/02 04:42:17;;;;;;;2.97;1.00;;;7.70;69.50;;;;;;5090251;28;20196;-86
2024/03/02 04:44:43;;;;;;;3.03;0.90;;;7.70;69.60;;;;;;5091094;28;20620;-85
2024/03/02 04:47:09;;;;;;;5.07;1.30;;;7.60;65.40;;;;;;5090935;28;20211;-86
2024/03/02 04:49:34;;;;;;;3.47;1.30;;;7.60;64.90;;;;;;5091282;28;20172;-86
2024/03/02 04:52:00;;;;;;;2.50;0.90;;;7.50;66.40;;;;;;5092243;28;20191;-84
2024/03/02 04:54:25;;;;;;;3.03;1.03;;;7.60;69.20;;;;;;5091680;28;20175;-84
2024/03/02 04:56:52;;;;;;;3.73;1.00;;;7.60;71.80;;;;;;5095336;28;20171;-86
2024/03/02 04:59:18;;;;;;;3.57;1.23;;;7.50;71.50;;;;;;5094531;28;20171;-84
2024/03/02 05:01:45;;;;;;;3.40;1.10;;;7.60;66.70;;;;;;5094621;28;20195;-85
2024/03/02 05:04:11;;;;;;;3.40;0.97;;;7.60;65.70;;;;;;5094298;28;20176;-86
2024/03/02 05:06:39;;;;;;;4.83;1.30;;;7.50;66.00;;;;;;5094123;28;20218;-85
2024/03/02 05:09:04;;;;;;;1.97;0.93;;;7.60;66.80;;;;;;5094766;28;20233;-85
2024/03/02 05:14:06;;;;;;;1.70;0.90;;;7.50;60.50;;;;;;5095708;28;20202;-84
2024/03/02 05:16:36;;;;;;;3.20;1.30;;;7.50;63.60;;;;;;5095975;28;20243;-85
2024/03/02 05:19:02;;;;;;;3.27;1.50;;;7.50;62.10;;;;;;5093399;28;20752;-84
2024/03/02 05:21:28;;;;;;;6.67;1.53;;;7.40;61.20;;;;;;5094469;28;20172;-86
2024/03/02 05:23:54;;;;;;;4.23;1.33;;;7.50;59.50;;;;;;5094564;28;20179;-85
2024/03/02 05:26:20;;;;;;;5.43;1.50;;;7.70;57.00;;;;;;5094438;28;20207;-86
2024/03/02 05:28:45;;;;;;;3.10;1.10;;;7.60;55.10;;;;;;5092910;28;20179;-86
2024/03/02 05:31:11;;;;;;;5.13;1.40;;;7.60;53.50;;;;;;5095095;28;20634;-86
2024/03/02 05:33:40;;;;;;;3.43;1.33;;;7.40;54.20;;;;;;5095267;28;20203;-83
2024/03/02 05:36:06;;;;;;;1.80;1.07;;;7.30;54.70;;;;;;5093273;28;20180;-86
2024/03/02 05:38:36;;;;;;;4.77;1.37;;;7.20;61.50;;;;;;5094044;28;20183;-87
2024/03/02 05:41:02;;;;;;;3.13;1.30;;;7.20;64.60;;;;;;5095388;28;20284;-84
2024/03/02 05:43:28;;;;;;;4.33;1.20;;;7.20;68.40;;;;;;5094098;28;20172;-85
2024/03/02 05:45:54;;;;;;;5.30;1.40;;;7.30;69.60;;;;;;5093066;28;20872;-87
2024/03/02 05:48:20;;;;;;;8.53;1.30;;;7.10;68.00;;;;;;5092639;28;20183;-84
2024/03/02 05:50:46;;;;;;;3.30;1.07;;;7.10;70.90;;;;;;5095400;28;20179;-85
2024/03/02 05:53:11;;;;;;;4.33;1.47;;;7.10;74.50;;;;;;5093803;28;20270;-84
2024/03/02 05:55:37;;;;;;;3.53;1.30;;;7.10;78.70;;;;;;5092928;28;20175;-83
2024/03/02 06:00:31;;;;;;;5.27;1.40;;;6.90;76.50;;;;;;5094985;28;20236;-85
2024/03/02 06:02:57;;;;;;;3.67;1.30;;;7.10;77.50;;;;;;5092431;28;20201;-87
2024/03/02 06:05:22;;;;;;;2.47;1.00;;;7.10;77.70;;;;;;5093236;28;20228;-84
2024/03/02 06:07:48;;;;;;;2.57;1.10;;;7.00;73.80;;;;;;5093595;28;20280;-85
2024/03/02 06:10:14;;;;;;;3.17;1.10;;;6.90;79.20;;;;;;5093468;28;20649;-87
2024/03/02 06:12:40;;;;;;;4.60;1.57;;;6.80;80.80;;;;;;5091875;28;20203;-84
2024/03/02 06:15:06;;;;;;;5.00;1.40;;;6.80;84.30;;;;;;5093199;28;20199;-86
2024/03/02 06:17:32;;;;;;;4.37;1.40;;;6.80;85.60;;;;;;5093472;28;20229;-86
2024/03/02 06:19:58;;;;;;;6.07;1.73;;;6.70;85.90;;;;;;5092552;28;20633;-86
2024/03/02 06:22:24;;;;;;;5.20;1.40;;;6.80;85.60;;;;;;5093259;28;20174;-85
2024/03/02 06:24:51;;;;;;;4.53;1.13;;;6.80;83.90;;;;;;5093034;28;20533;-85
2024/03/02 06:27:16;;;;;;;3.37;1.20;;;6.80;84.40;;;;;;5094228;28;20199;-85
2024/03/02 06:29:42;;;;;;;4.07;1.53;;;7.00;86.00;;;;;;5091764;28;20183;-84
2024/03/02 06:32:08;;;;;;;6.10;1.50;;;7.00;84.70;;;;;;5092645;28;20179;-85
2024/03/02 06:34:33;;;;;;;2.67;1.23;;;6.80;87.20;;;;;;5092609;28;20167;-84
2024/03/02 06:36:59;;;;;;;4.83;1.20;;;6.80;86.80;;;;;;5093064;28;20203;-85
2024/03/02 06:39:25;;;;;;;5.33;1.30;;;6.90;89.50;;;;;;5092704;28;20183;-86
2024/03/02 06:41:51;;;;;;;5.77;1.63;;;6.80;87.10;;;;;;5092389;28;20179;-85
2024/03/02 06:44:18;;;;;;;4.73;1.33;;;7.00;90.00;;;;;;5092638;28;20179;-87
2024/03/02 06:46:44;;;;;;;6.67;2.00;;;6.90;84.60;;;;;;5091947;28;20239;-84
2024/03/02 06:49:10;;;;;;;6.33;1.73;;;6.90;84.30;;;;;;5092379;28;20687;-85
2024/03/02 06:51:36;;;;;;;3.40;1.40;;;6.90;85.60;;;;;;5092459;28;20175;-86
2024/03/02 06:54:02;;;;;;;4.33;1.43;;;6.90;88.40;;;;;;5092745;28;20164;-84
2024/03/02 06:56:27;;;;;;;6.13;1.37;;;6.80;88.40;;;;;;5092723;28;20309;-84
2024/03/02 06:58:53;;;;;;;4.67;1.60;;;7.00;88.00;;;;;;5093069;28;20167;-84
2024/03/02 07:01:20;;;;;;;4.13;1.57;;;7.00;89.00;;;;;;5092797;28;20282;-86
2024/03/02 07:03:46;;;;;;;5.13;1.60;;;7.10;87.30;;;;;;5093218;28;20172;-86
2024/03/02 07:06:11;;;;;;;5.13;1.80;;;7.00;86.40;;;;;;5092333;28;20209;-85
2024/03/02 07:08:37;;;;;;;5.37;1.90;;;7.20;85.80;;;;;;5092892;28;20188;-85
2024/03/02 07:11:03;;;;;;;6.83;1.80;;;7.30;79.30;;;;;;5092520;28;20647;-84
2024/03/02 07:13:28;;;;;;;4.77;1.70;;;7.30;74.60;;;;;;5092429;28;20156;-86
2024/03/02 07:16:40;;;;;;;5.10;1.50;;;7.30;69.80;;;;;;5092756;28;20167;-85
2024/03/02 07:18:50;;;;;;;3.37;1.40;;;7.40;65.70;;;;;;5085328;28;20211;-85
2024/03/02 07:21:16;;;;;;;6.23;1.57;;;7.40;64.60;;;;;;5092787;28;20194;-85
2024/03/02 07:23:42;;;;;;;6.93;1.87;;;7.30;60.70;;;;;;5091985;28;20206;-87
2024/03/02 07:26:07;;;;;;;5.40;1.60;;;7.40;59.60;;;;;;5091686;28;20199;-83
2024/03/02 07:28:33;;;;;;;5.50;1.53;;;7.40;60.00;;;;;;5092340;28;20187;-86
2024/03/02 07:31:04;;;;;;;4.27;1.30;;;7.50;59.60;;;;;;5092473;28;20647;-85
2024/03/02 07:33:30;;;;;;;4.63;1.40;;;7.50;58.30;;;;;;5093553;28;20174;-87
2024/03/02 07:35:57;;;;;;;6.80;1.63;;;7.60;56.90;;;;;;5090078;28;20171;-85
2024/03/02 07:38:23;;;;;;;7.43;2.27;;;7.60;55.60;;;;;;5093170;28;20167;-86
2024/03/02 07:40:53;;;;;;;4.07;1.37;;;7.60;50.90;;;;;;5091103;28;20170;-85
2024/03/02 07:43:19;;;;;;;5.23;1.43;;;7.80;51.70;;;;;;5091542;28;20229;-88
2024/03/02 07:45:45;;;;;;;7.03;1.93;;;7.90;51.30;;;;;;5090762;28;20195;-87
2024/03/02 07:48:11;;;;;;;3.77;1.50;;;8.00;48.60;;;;;;5091774;28;20205;-85
2024/03/02 07:50:38;;;;;;;6.77;2.00;;;8.00;45.80;;;;;;5091777;28;20537;-85
2024/03/02 07:53:05;;;;;;;6.20;1.60;;;8.20;40.10;;;;;;5093468;28;20357;-84
2024/03/02 07:55:31;;;;;;;3.77;1.50;;;8.10;36.60;;;;;;5094924;28;20236;-85
2024/03/02 07:57:57;;;;;;;5.73;1.80;;;8.10;33.10;;;;;;5091619;28;20596;-86
2024/03/02 08:00:23;;;;;;;7.37;2.37;;;8.10;29.30;;;;;;5090493;28;20187;-85
2024/03/02 08:02:50;;;;;;;8.03;1.93;;;8.20;30.10;;;;;;5091499;28;20248;-86
2024/03/02 08:05:18;;;;;;;4.90;1.83;;;8.10;29.50;;;;;;5090777;28;20170;-84
2024/03/02 08:07:45;;;;;;;9.03;2.63;;;8.10;31.60;;;;;;5090539;28;20679;-86
2024/03/02 08:10:11;;;;;;;6.17;1.77;;;8.10;35.00;;;;;;5091051;28;20172;-85
2024/03/02 08:12:37;;;;;;;8.03;2.20;;;8.30;32.80;;;;;;5090379;28;20301;-86
2024/03/02 08:15:04;;;;;;;5.07;2.00;;;8.30;30.00;;;;;;5092666;28;20242;-85
2024/03/02 08:17:30;;;;;;;6.37;1.90;;;8.30;27.40;;;;;;5090618;28;20172;-86
2024/03/02 08:19:56;;;;;;;9.60;2.53;;;8.50;27.50;;;;;;5090543;28;20167;-86
2024/03/02 08:22:22;;;;;;;5.30;1.80;;;8.60;21.80;;;;;;5091123;28;20198;-86
2024/03/02 08:24:48;;;;;;;7.23;1.80;;;8.80;18.50;;;;;;5091528;28;20176;-87
2024/03/02 08:27:14;;;;;;;4.50;1.50;;;8.70;13.80;;;;;;5091437;28;20281;-86
2024/03/02 08:29:41;;;;;;;6.53;1.80;;;8.80;10.90;;;;;;5093874;28;20251;-85
2024/03/02 08:32:07;;;;;;;7.47;2.50;;;8.90;12.50;;;;;;5094650;28;20224;-85
2024/03/02 08:34:35;;;;;;;7.63;2.90;;;8.90;11.70;;;;;;5094649;28;20167;-85
2024/03/02 08:37:02;;;;;;;8.00;3.20;;;8.80;8.50;;;;;;5094551;28;20176;-87
2024/03/02 08:39:28;;;;;;;7.37;3.10;;;8.90;9.30;;;;;;5094762;28;20172;-88
2024/03/02 08:41:54;;;;;;;8.30;2.37;;;9.10;6.10;;;;;;5095525;28;20168;-86
2024/03/02 08:44:20;;;;;;;7.63;2.80;;;9.20;4.40;;;;;;5094824;28;20643;-85
2024/03/02 08:46:46;;;;;;;8.03;2.40;;;9.10;1.80;;;;;;5095336;28;20200;-86
2024/03/02 08:49:14;;;;;;;8.10;3.23;;;9.20;1.00;;;;;;5095087;28;20202;-86
2024/03/02 08:51:40;;;;;;;7.47;3.30;;;9.30;1.00;;;;;;5094816;28;20172;-85
2024/03/02 08:54:06;;;;;;;7.20;2.57;;;9.30;1.00;;;;;;5094378;28;20690;-86
2024/03/02 08:56:31;;;;;;;5.00;1.90;;;9.40;1.00;;;;;;5094836;28;20528;-86
2024/03/02 08:58:59;;;;;;;6.53;2.60;;;9.40;1.00;;;;;;5095586;28;20636;-86
2024/03/02 09:01:25;;;;;;;4.13;2.20;;;9.60;1.00;;;;;;5094728;28;20540;-84
2024/03/02 09:03:51;;;;;;;6.67;2.27;;;9.60;1.00;;;;;;5093670;28;20172;-87
2024/03/02 09:06:17;;;;;;;7.57;2.20;;;9.70;1.00;;;;;;5094760;28;20199;-85
2024/03/02 09:08:44;;;;;;;11.27;2.40;;;10.00;1.00;;;;;;5094775;28;20675;-86
2024/03/02 09:11:10;;;;;;;6.23;1.80;;;10.00;1.00;;;;;;5094349;28;20181;-88
2024/03/02 09:13:37;;;;;;;6.37;2.30;;;10.10;1.00;;;;;;5094372;28;20201;-84
2024/03/02 09:16:03;;;;;;;8.20;2.23;;;10.30;1.00;;;;;;5094990;28;20654;-86
2024/03/02 09:18:29;;;;;;;7.13;1.80;;;10.40;99.90;;;;;;5095097;28;20176;-86
2024/03/02 09:20:55;;;;;;;6.27;1.97;;;10.50;99.90;;;;;;5094701;28;20179;-85
2024/03/02 09:23:21;;;;;;;7.33;1.50;;;10.60;99.90;;;;;;5094399;28;20183;-87
2024/03/02 09:25:47;;;;;;;5.00;1.73;;;10.60;99.90;;;;;;5093749;28;20206;-87
2024/03/02 09:28:15;;;;;;;6.63;2.20;;;10.70;99.90;;;;;;5093843;28;20175;-89
2024/03/02 09:30:41;;;;;;;5.73;1.80;;;10.70;99.90;;;;;;5094304;28;20176;-85
2024/03/02 09:33:06;;;;;;;9.03;2.30;;;10.60;99.90;;;;;;5094448;28;20180;-86
2024/03/02 09:35:32;;;;;;;6.13;1.67;;;10.70;99.90;;;;;;5093340;28;20194;-86
2024/03/02 09:37:58;;;;;;;5.60;2.10;;;10.70;99.90;;;;;;5093724;28;20211;-85
2024/03/02 09:40:24;;;;;;;5.93;2.50;;;10.70;99.90;;;;;;5092561;28;20271;-85
2024/03/02 09:42:52;;;;;;;6.97;2.10;;;10.80;99.90;;;;;;5092802;28;20206;-87
2024/03/02 09:45:23;;;;;;;8.30;1.77;;;10.90;99.90;;;;;;5092936;28;20307;-85
2024/03/02 09:47:49;;;;;;;6.17;2.00;;;10.80;99.90;;;;;;5093288;28;20264;-85
2024/03/02 09:50:15;;;;;;;4.93;1.80;;;10.70;99.90;;;;;;5093163;28;20172;-83
2024/03/02 09:52:43;;;;;;;4.70;1.60;;;10.70;99.90;;;;;;5094018;28;20179;-86
2024/03/02 09:55:09;;;;;;;6.23;1.80;;;10.70;99.90;;;;;;5094573;28;20164;-83
2024/03/02 09:57:35;;;;;;;5.03;2.00;;;10.70;1.00;;;;;;5098880;28;20199;-87
2024/03/02 10:00:01;;;;;;;4.80;1.93;;;10.80;99.90;;;;;;5095803;28;20192;-88
2024/03/02 10:02:28;;;;;;;6.73;1.80;;;10.90;99.90;;;;;;5098286;28;20171;-87
2024/03/02 10:04:54;;;;;;;6.00;1.93;;;10.80;99.90;;;;;;5094627;28;20652;-85
2024/03/02 10:07:20;;;;;;;7.13;1.60;;;10.80;99.90;;;;;;5091648;28;20215;-87
2024/03/02 10:09:49;;;;;;;9.13;2.20;;;10.90;99.90;;;;;;5092370;28;20572;-87
2024/03/02 10:12:16;;;;;;;4.97;2.13;;;11.10;99.90;;;;;;5094506;28;20186;-91
2024/03/02 10:14:43;;;;;;;6.73;2.60;;;11.10;99.90;;;;;;5094954;28;20218;-86
2024/03/02 10:17:10;;;;;;;10.17;2.60;;;11.40;99.90;;;;;;5096308;28;20168;-90
2024/03/02 10:19:36;;;;;;;6.93;1.87;;;11.50;99.90;;;;;;5094857;28;20268;-87
2024/03/02 10:22:07;;;;;;;6.67;1.80;;;11.70;99.90;;;;;;5093850;28;20173;-85
2024/03/02 10:24:38;;;;;;;5.27;1.87;;;11.80;99.90;;;;;;5094563;28;20176;-89
2024/03/02 10:27:08;;;;;;;6.13;2.30;;;12.00;99.90;;;;;;5097159;28;20205;-85
2024/03/02 10:29:38;;;;;;;6.13;1.73;;;12.20;99.90;;;;;;5091632;28;20172;-87
2024/03/02 10:32:06;;;;;;;8.77;2.23;;;12.40;99.90;;;;;;5094276;28;20230;-91
2024/03/02 10:34:32;;;;;;;6.60;1.97;;;12.50;99.90;;;;;;5093577;28;20177;-88
2024/03/02 10:37:00;;;;;;;8.27;2.60;;;12.60;99.90;;;;;;5092859;28;20183;-88
2024/03/02 10:39:26;;;;;;;5.67;2.03;;;12.70;99.90;;;;;;5092797;28;20323;-85
2024/03/02 10:41:53;;;;;;;4.77;1.57;;;12.70;99.90;;;;;;5093128;28;20252;-84
2024/03/02 10:44:19;;;;;;;6.60;2.00;;;12.40;99.90;;;;;;5094311;28;20259;-86
2024/03/02 10:46:47;;;;;;;7.77;1.83;;;12.40;99.90;;;;;;5092817;28;20209;-91
2024/03/02 10:49:12;;;;;;;5.57;1.90;;;12.60;99.90;;;;;;5092851;28;20178;-84
2024/03/02 10:51:38;;;;;;;9.10;1.67;;;12.70;99.90;;;;;;5098197;28;20187;-83
2024/03/02 10:54:04;;;;;;;9.20;2.00;;;12.60;99.90;;;;;;5099087;28;20179;-85
2024/03/02 10:56:37;;;;;;;8.03;1.87;;;12.40;99.90;;;;;;5094470;28;20182;-88
2024/03/02 10:59:26;;;;;;;7.73;1.93;;;12.20;99.90;;;;;;5095091;28;20172;-87
2024/03/02 11:01:58;;;;;;;8.07;1.97;;;12.00;99.90;;;;;;5093638;28;20592;-91
2024/03/02 11:04:26;;;;;;;8.07;1.90;;;12.10;99.90;;;;;;5094569;28;20188;-88
2024/03/02 11:06:58;;;;;;;8.03;2.33;;;12.20;99.90;;;;;;5093778;28;20292;-87
2024/03/02 11:09:27;;;;;;;5.97;1.90;;;12.30;99.90;;;;;;5093861;28;20283;-89
2024/03/02 11:12:33;;;;;;;9.37;2.60;;;12.40;99.90;;;;;;5093055;28;20186;-90
2024/03/02 11:15:00;;;;;;;6.77;2.10;;;12.50;99.90;;;;;;5094205;28;20210;-83
2024/03/02 11:17:27;;;;;;;6.67;2.20;;;12.70;99.90;;;;;;5092785;28;20414;-89
2024/03/02 11:19:53;;;;;;;6.03;1.80;;;12.60;99.90;;;;;;5099769;28;20175;-88
2024/03/02 11:22:20;;;;;;;9.30;2.13;;;12.50;99.90;;;;;;5097476;28;20193;-86
2024/03/02 11:24:51;;;;;;;7.83;2.20;;;12.50;99.90;;;;;;5099392;28;20169;-86
2024/03/02 11:27:45;;;;;;;5.87;1.53;;;12.70;99.90;;;;;;5096160;28;20234;-88
2024/03/02 11:30:33;;;;;;;7.37;1.67;;;12.70;99.90;;;;;;5095917;28;20234;-88
2024/03/02 11:33:08;;;;;;;8.70;2.30;;;12.70;99.90;;;;;;5094208;28;20179;-85
2024/03/02 11:35:42;;;;;;;5.90;2.30;;;12.60;99.90;;;;;;5092872;28;20168;-88
2024/03/02 11:38:09;;;;;;;5.37;1.53;;;12.70;99.90;;;;;;5094715;28;20181;-90
2024/03/02 11:40:35;;;;;;;9.43;2.73;;;12.80;99.90;;;;;;5094392;28;20214;-89
2024/03/02 11:43:01;;;;;;;6.47;1.87;;;12.80;99.90;;;;;;5094430;28;20194;-87
2024/03/02 11:45:27;;;;;;;6.07;1.63;;;12.90;99.90;;;;;;5092586;28;20648;-87
2024/03/02 11:47:59;;;;;;;4.23;1.63;;;13.00;99.90;;;;;;5093522;28;20306;-87
2024/03/02 11:50:40;;;;;;;4.53;1.60;;;12.90;99.90;;;;;;5093750;28;20174;-87
2024/03/02 11:53:07;;;;;;;6.53;1.97;;;12.90;99.90;;;;;;5095153;28;20185;-90
2024/03/02 11:55:36;;;;;;;4.50;1.80;;;13.10;99.90;;;;;;5093894;28;20174;-85
2024/03/02 11:58:06;;;;;;;6.37;2.10;;;13.40;99.90;;;;;;5092104;28;20186;-90
2024/03/02 12:00:32;;;;;;;6.10;1.90;;;13.50;99.90;;;;;;5094121;28;20191;-84
2024/03/02 12:03:03;;;;;;;5.33;1.60;;;13.60;99.90;;;;;;5092327;28;20528;-85
2024/03/02 12:05:30;;;;;;;3.97;1.43;;;13.50;99.90;;;;;;5091335;28;20175;-87
2024/03/02 12:07:57;;;;;;;10.33;2.10;;;13.30;99.90;;;;;;5090966;28;20693;-88
2024/03/02 12:10:23;;;;;;;4.67;1.47;;;13.30;99.90;;;;;;5093959;28;20183;-88
2024/03/02 12:12:58;;;;;;;5.30;1.73;;;13.30;99.90;;;;;;5091663;28;20182;-88
2024/03/02 12:15:31;;;;;;;5.67;1.63;;;13.20;99.90;;;;;;5093333;28;20167;-89
2024/03/02 12:17:58;;;;;;;6.73;2.03;;;13.00;99.90;;;;;;5090944;28;20689;-86
2024/03/02 12:20:26;;;;;;;6.50;1.90;;;13.10;99.90;;;;;;5089677;28;20631;-87
2024/03/02 12:22:56;;;;;;;6.80;2.17;;;13.30;99.90;;;;;;5091728;28;20225;-84
2024/03/02 12:25:23;;;;;;;5.63;2.27;;;13.40;99.90;;;;;;5092600;28;20651;-87
2024/03/02 12:27:55;;;;;;;8.03;2.00;;;13.60;99.90;;;;;;5094514;28;20260;-90
2024/03/02 12:30:22;;;;;;;5.57;1.60;;;13.50;99.90;;;;;;5111628;28;20181;-84
2024/03/02 12:32:48;;;;;;;5.20;1.70;;;13.70;99.90;;;;;;5095129;28;20183;-85
2024/03/02 12:35:17;;;;;;;3.93;1.90;;;13.70;99.90;;;;;;5075859;28;20611;-83
2024/03/02 12:37:51;;;;;;;6.43;2.80;;;13.90;99.90;;;;;;5074271;28;20179;-88
2024/03/02 12:40:19;;;;;;;5.73;2.17;;;13.90;99.90;;;;;;5072378;28;20187;-89
2024/03/02 12:42:46;;;;;;;3.80;1.70;;;13.90;99.90;;;;;;5076667;28;20181;-90
2024/03/02 12:45:12;;;;;;;7.40;2.33;;;14.00;99.90;;;;;;5087947;28;20177;-86
2024/03/02 12:47:40;;;;;;;7.60;3.17;;;14.00;99.90;;;;;;5088178;28;20220;-86
2024/03/02 12:50:06;;;;;;;6.50;2.50;;;14.00;99.90;;;;;;5072977;28;20539;-87
2024/03/02 12:52:32;;;;;;;5.53;2.37;;;13.80;99.90;;;;;;5087598;28;20187;-85
2024/03/02 12:54:59;;;;;;;5.50;2.10;;;13.80;99.90;;;;;;5072014;28;20214;-88
2024/03/02 12:57:29;;;;;;;6.13;2.40;;;13.90;99.90;;;;;;5086809;28;20176;-85
2024/03/02 13:00:13;;;;;;;5.37;2.30;;;13.90;99.90;;;;;;5070594;28;20228;-85